Time;durP1;ratioP1;P1;durP2;ratioP2;P2;SDS_P1;SDS_P2;PMS_P1;PMS_P2;Temp;Humidity;BMP_temperature;BMP_pressure;BME280_temperature;BME280_humidity;BME280_pressure;Samples;Min_cycle;Max_cycle;Signal;HPM_P1;HPM_P2
2021/07/18 00:02:04;;;;;;;0.30;0.30;;;19.80;99.90;;;;;;5055618;28;20189;-85
2021/07/18 00:04:30;;;;;;;0.17;0.17;;;19.80;99.90;;;;;;5037516;28;20733;-85
2021/07/18 00:06:56;;;;;;;0.10;0.10;;;19.60;99.90;;;;;;5037272;28;20293;-85
2021/07/18 00:09:22;;;;;;;0.13;0.13;;;19.70;99.90;;;;;;5055048;28;20526;-85
2021/07/18 00:11:47;;;;;;;0.53;0.50;;;19.70;99.90;;;;;;5037470;28;20198;-84
2021/07/18 00:14:13;;;;;;;0.10;0.10;;;19.60;99.90;;;;;;5055427;28;20181;-85
2021/07/18 00:16:39;;;;;;;0.23;0.20;;;19.70;99.90;;;;;;5037019;28;20697;-86
2021/07/18 00:19:06;;;;;;;0.20;0.20;;;19.60;99.90;;;;;;5048351;28;20187;-84
2021/07/18 00:21:32;;;;;;;0.30;0.30;;;19.60;99.90;;;;;;5037038;28;20243;-85
2021/07/18 00:23:57;;;;;;;0.40;0.30;;;19.60;99.90;;;;;;5055184;28;20681;-85
2021/07/18 00:26:24;;;;;;;0.10;0.10;;;19.60;99.90;;;;;;5055050;28;20209;-85
2021/07/18 00:28:50;;;;;;;0.60;0.60;;;19.60;99.90;;;;;;5054819;28;20231;-85
2021/07/18 00:31:16;;;;;;;0.17;0.17;;;19.60;99.90;;;;;;5054836;28;20177;-84
2021/07/18 00:33:41;;;;;;;0.30;0.30;;;19.60;99.90;;;;;;5037296;28;20305;-85
2021/07/18 00:36:07;;;;;;;0.20;0.20;;;19.60;99.90;;;;;;5036987;28;20670;-85
2021/07/18 00:38:33;;;;;;;0.20;0.20;;;19.50;99.90;;;;;;5036789;28;20239;-85
2021/07/18 00:40:59;;;;;;;1.23;0.97;;;19.50;99.90;;;;;;5037026;28;20197;-85
2021/07/18 00:43:24;;;;;;;0.30;0.30;;;19.50;99.90;;;;;;5037219;28;20205;-84
2021/07/18 00:46:00;;;;;;;0.20;0.20;;;19.50;99.90;;;;;;5054687;28;20690;-85
2021/07/18 00:48:27;;;;;;;0.10;0.10;;;19.40;99.90;;;;;;5036810;28;20637;-85
2021/07/18 00:50:54;;;;;;;0.37;0.37;;;19.30;99.90;;;;;;5036868;28;20264;-84
2021/07/18 00:53:19;;;;;;;0.10;0.10;;;19.30;99.90;;;;;;5036763;28;20181;-84
2021/07/18 00:55:45;;;;;;;0.30;0.30;;;19.30;99.90;;;;;;5035945;28;20577;-85
2021/07/18 00:58:13;;;;;;;0.30;0.30;;;19.30;99.90;;;;;;5036428;28;20216;-85
2021/07/18 01:00:39;;;;;;;0.30;0.10;;;19.20;99.90;;;;;;5054515;28;20209;-85
2021/07/18 01:03:05;;;;;;;0.20;0.20;;;19.10;99.90;;;;;;5054260;28;20682;-85
2021/07/18 01:05:30;;;;;;;0.23;0.23;;;19.10;99.90;;;;;;5036628;28;20193;-85
2021/07/18 01:07:56;;;;;;;0.20;0.20;;;19.00;99.90;;;;;;5036096;28;20184;-85
2021/07/18 01:10:22;;;;;;;0.30;0.30;;;18.90;99.90;;;;;;5036222;28;20188;-85
2021/07/18 01:12:48;;;;;;;0.20;0.20;;;18.80;99.90;;;;;;5036517;28;20194;-85
2021/07/18 01:15:14;;;;;;;0.30;0.30;;;18.70;99.90;;;;;;5033074;28;20225;-85
2021/07/18 01:17:40;;;;;;;0.10;0.10;;;18.50;99.90;;;;;;5035969;28;20582;-84
2021/07/18 01:20:10;;;;;;;0.10;0.10;;;18.50;99.90;;;;;;5036310;28;20190;-86
2021/07/18 01:22:36;;;;;;;0.30;0.30;;;18.40;99.90;;;;;;5035476;28;20189;-85
2021/07/18 01:25:08;;;;;;;0.20;0.20;;;18.40;99.90;;;;;;5036459;28;20186;-85
2021/07/18 01:27:35;;;;;;;0.23;0.23;;;18.40;99.90;;;;;;5053446;28;20202;-85
2021/07/18 01:30:03;;;;;;;0.30;0.30;;;18.30;99.90;;;;;;5049611;28;20204;-85
2021/07/18 01:32:28;;;;;;;0.40;0.20;;;18.40;99.90;;;;;;5053629;28;20653;-85
2021/07/18 01:34:54;;;;;;;1.93;0.20;;;18.20;99.90;;;;;;5035433;28;20178;-85
2021/07/18 01:37:19;;;;;;;0.10;0.10;;;18.20;99.90;;;;;;5035517;28;20355;-84
2021/07/18 01:39:46;;;;;;;0.20;0.20;;;18.20;99.90;;;;;;5036237;28;20548;-85
2021/07/18 01:42:12;;;;;;;0.20;0.20;;;18.30;99.90;;;;;;5053895;28;20178;-85
2021/07/18 01:44:37;;;;;;;0.30;0.30;;;18.50;99.90;;;;;;5035938;28;20217;-85
2021/07/18 01:47:04;;;;;;;0.40;0.40;;;18.50;99.90;;;;;;5035610;28;20213;-85
2021/07/18 01:49:30;;;;;;;0.17;0.17;;;18.50;99.90;;;;;;5035883;28;20185;-85
2021/07/18 01:51:55;;;;;;;0.30;0.30;;;18.50;99.90;;;;;;5035705;28;20244;-85
2021/07/18 01:54:21;;;;;;;0.23;0.23;;;18.50;99.90;;;;;;5053687;28;20185;-85
2021/07/18 01:56:47;;;;;;;0.37;0.37;;;18.50;99.90;;;;;;5035264;28;20212;-85
2021/07/18 01:59:15;;;;;;;0.20;0.20;;;18.50;99.90;;;;;;5035866;28;20190;-85
2021/07/18 02:01:40;;;;;;;0.20;0.20;;;18.60;99.90;;;;;;5053373;28;20182;-84
2021/07/18 02:04:06;;;;;;;0.30;0.30;;;18.60;99.90;;;;;;5036377;28;20627;-85
2021/07/18 02:06:32;;;;;;;0.10;0.10;;;18.60;99.90;;;;;;5035752;28;20252;-84
2021/07/18 02:08:59;;;;;;;0.30;0.30;;;18.40;99.90;;;;;;5036067;28;20186;-85
2021/07/18 02:11:26;;;;;;;0.10;0.10;;;18.50;99.90;;;;;;5035723;28;20660;-85
2021/07/18 02:13:54;;;;;;;0.57;0.57;;;18.50;99.90;;;;;;5052973;28;20186;-85
2021/07/18 02:16:20;;;;;;;0.20;0.20;;;18.50;99.90;;;;;;5035203;28;20218;-85
2021/07/18 02:18:47;;;;;;;0.20;0.20;;;18.50;99.90;;;;;;5034820;28;20269;-85
2021/07/18 02:21:13;;;;;;;0.20;0.20;;;18.60;99.90;;;;;;5035165;28;20189;-85
2021/07/18 02:23:39;;;;;;;0.60;0.60;;;18.50;99.90;;;;;;5034962;28;20271;-85
2021/07/18 02:26:05;;;;;;;0.10;0.10;;;18.50;99.90;;;;;;5034935;28;20225;-85
2021/07/18 02:28:31;;;;;;;0.47;0.47;;;18.50;99.90;;;;;;5034910;28;20200;-85
2021/07/18 02:30:57;;;;;;;0.10;0.10;;;18.50;99.90;;;;;;5034935;28;20188;-85
2021/07/18 02:33:23;;;;;;;0.23;0.23;;;18.40;99.90;;;;;;5052822;28;20181;-85
2021/07/18 02:35:49;;;;;;;0.10;0.10;;;18.40;99.90;;;;;;5034765;28;20204;-84
2021/07/18 02:38:15;;;;;;;0.20;0.20;;;18.40;99.90;;;;;;5052404;28;20243;-85
2021/07/18 02:40:40;;;;;;;0.20;0.20;;;18.30;99.90;;;;;;5052871;28;20238;-85
2021/07/18 02:43:06;;;;;;;0.10;0.10;;;18.30;99.90;;;;;;5052784;28;20204;-86
2021/07/18 02:45:32;;;;;;;0.20;0.20;;;18.30;99.90;;;;;;5034204;28;20601;-85
2021/07/18 02:47:58;;;;;;;0.10;0.10;;;18.20;99.90;;;;;;5034488;28;20216;-85
2021/07/18 02:50:26;;;;;;;0.20;0.20;;;18.10;99.90;;;;;;5052562;28;20177;-85
2021/07/18 02:52:52;;;;;;;0.20;0.20;;;18.10;99.90;;;;;;5034784;28;20717;-85
2021/07/18 02:55:18;;;;;;;0.37;0.37;;;18.10;99.90;;;;;;5048085;28;20264;-83
2021/07/18 02:57:44;;;;;;;0.20;0.20;;;18.20;99.90;;;;;;5052288;28;20243;-85
2021/07/18 03:00:15;;;;;;;0.50;0.40;;;18.10;99.90;;;;;;5052565;28;20196;-85
2021/07/18 03:02:42;;;;;;;0.40;0.40;;;18.20;99.90;;;;;;5034812;28;20194;-84
2021/07/18 03:05:10;;;;;;;0.10;0.10;;;18.10;99.90;;;;;;5052411;28;20178;-85
2021/07/18 03:07:37;;;;;;;0.10;0.10;;;18.10;99.90;;;;;;5034438;28;20208;-85
2021/07/18 03:10:04;;;;;;;0.50;0.20;;;18.10;99.90;;;;;;5029448;28;20708;-85
2021/07/18 03:12:31;;;;;;;0.20;0.20;;;18.10;99.90;;;;;;5052484;28;20178;-85
2021/07/18 03:14:58;;;;;;;0.20;0.20;;;18.10;99.90;;;;;;5051883;28;20533;-85
2021/07/18 03:17:24;;;;;;;0.20;0.20;;;18.00;99.90;;;;;;5034159;28;20665;-85
2021/07/18 03:19:50;;;;;;;0.30;0.30;;;18.00;99.90;;;;;;5051726;28;20189;-85
2021/07/18 03:22:16;;;;;;;0.20;0.20;;;18.00;99.90;;;;;;5052526;28;20230;-85
2021/07/18 03:24:41;;;;;;;0.30;0.30;;;18.00;99.90;;;;;;5034376;28;20209;-85
2021/07/18 03:27:07;;;;;;;0.70;0.70;;;18.00;99.90;;;;;;5052046;28;20193;-85
2021/07/18 03:29:33;;;;;;;1.33;0.40;;;17.80;99.90;;;;;;5051860;28;20240;-84
2021/07/18 03:31:58;;;;;;;0.20;0.20;;;17.80;99.90;;;;;;5034488;28;20318;-85
2021/07/18 03:34:24;;;;;;;0.60;0.30;;;17.90;99.90;;;;;;5034074;28;20669;-84
2021/07/18 03:36:49;;;;;;;0.20;0.20;;;17.80;99.90;;;;;;5051658;28;20209;-85
2021/07/18 03:39:15;;;;;;;0.10;0.10;;;17.80;99.90;;;;;;5034058;28;20639;-85
2021/07/18 03:41:41;;;;;;;0.10;0.10;;;17.90;99.90;;;;;;5052088;28;20194;-85
2021/07/18 03:44:06;;;;;;;0.30;0.30;;;17.90;99.90;;;;;;5034255;28;20205;-85
2021/07/18 03:46:32;;;;;;;0.10;0.10;;;17.80;99.90;;;;;;5052165;28;20225;-85
2021/07/18 03:48:57;;;;;;;0.10;0.10;;;17.80;99.90;;;;;;5033867;28;20269;-85
2021/07/18 03:51:23;;;;;;;0.30;0.30;;;17.80;99.90;;;;;;5034371;28;20188;-84
2021/07/18 03:53:49;;;;;;;0.20;0.20;;;17.80;99.90;;;;;;5051770;28;20207;-85
2021/07/18 03:56:14;;;;;;;0.17;0.17;;;18.00;99.90;;;;;;5051692;28;20591;-85
2021/07/18 03:58:40;;;;;;;0.10;0.10;;;18.20;99.90;;;;;;5033977;28;20201;-85
2021/07/18 04:01:10;;;;;;;0.20;0.20;;;18.50;99.90;;;;;;5034082;28;20188;-85
2021/07/18 04:03:36;;;;;;;0.20;0.20;;;18.70;99.90;;;;;;5034355;28;20206;-85
2021/07/18 04:06:03;;;;;;;0.30;0.30;;;19.10;99.90;;;;;;5052015;28;20255;-84
2021/07/18 04:08:30;;;;;;;0.20;0.20;;;19.20;99.90;;;;;;5051505;28;20649;-84
2021/07/18 04:10:55;;;;;;;0.10;0.10;;;19.40;99.90;;;;;;5038418;28;20241;-86
2021/07/18 04:13:21;;;;;;;0.10;0.10;;;19.70;99.90;;;;;;5033669;28;20186;-84
2021/07/18 04:15:47;;;;;;;0.50;0.50;;;20.10;99.90;;;;;;5033852;28;20249;-85
2021/07/18 04:18:13;;;;;;;0.77;0.27;;;20.40;99.90;;;;;;5051610;28;20185;-85
2021/07/18 04:20:38;;;;;;;0.20;0.20;;;20.60;99.90;;;;;;5032735;28;20184;-85
2021/07/18 04:23:05;;;;;;;0.10;0.10;;;20.70;99.90;;;;;;5033689;28;20571;-85
2021/07/18 04:25:31;;;;;;;0.20;0.20;;;20.60;99.90;;;;;;5050693;28;20192;-85
2021/07/18 04:27:56;;;;;;;0.20;0.20;;;20.30;99.90;;;;;;5051246;28;20185;-85
2021/07/18 04:30:22;;;;;;;0.30;0.30;;;20.20;99.90;;;;;;5033735;28;20185;-85
2021/07/18 04:32:48;;;;;;;0.20;0.20;;;20.00;99.90;;;;;;5037197;28;20177;-85
2021/07/18 04:35:14;;;;;;;0.30;0.30;;;19.80;99.90;;;;;;5055275;28;20174;-85
2021/07/18 04:37:41;;;;;;;0.20;0.20;;;19.60;99.90;;;;;;5037169;28;20256;-85
2021/07/18 04:40:08;;;;;;;0.17;0.13;;;19.40;99.90;;;;;;5037145;28;20246;-85
2021/07/18 04:42:34;;;;;;;0.87;0.70;;;19.00;99.90;;;;;;5037960;28;20701;-85
2021/07/18 04:44:59;;;;;;;0.53;0.53;;;19.00;99.90;;;;;;5037552;28;20217;-85
2021/07/18 04:47:25;;;;;;;0.70;0.30;;;19.00;99.90;;;;;;5037392;28;20255;-84
2021/07/18 04:49:52;;;;;;;0.23;0.23;;;18.90;99.90;;;;;;5037540;28;20193;-85
2021/07/18 04:52:18;;;;;;;0.20;0.20;;;18.80;99.90;;;;;;5038175;28;20224;-85
2021/07/18 04:54:44;;;;;;;0.50;0.50;;;18.70;99.90;;;;;;5037796;28;20213;-85
2021/07/18 04:57:10;;;;;;;0.40;0.40;;;18.70;99.90;;;;;;5055288;28;20204;-84
2021/07/18 04:59:35;;;;;;;0.20;0.20;;;18.50;99.90;;;;;;5037775;28;20181;-84
2021/07/18 05:02:01;;;;;;;0.30;0.30;;;18.50;99.90;;;;;;5055737;28;20544;-85
2021/07/18 05:04:27;;;;;;;0.20;0.20;;;18.50;99.90;;;;;;5055297;28;20235;-85
2021/07/18 05:06:52;;;;;;;0.47;0.47;;;18.40;99.90;;;;;;5037374;28;20212;-84
2021/07/18 05:09:18;;;;;;;0.47;0.40;;;18.40;99.90;;;;;;5036314;28;20181;-85
2021/07/18 05:11:43;;;;;;;0.20;0.20;;;18.50;99.90;;;;;;5036762;28;20251;-84
2021/07/18 05:14:09;;;;;;;0.43;0.40;;;18.50;99.90;;;;;;5054622;28;20268;-85
2021/07/18 05:16:35;;;;;;;0.30;0.30;;;18.50;99.90;;;;;;5035993;28;20589;-85
2021/07/18 05:19:02;;;;;;;1.20;0.43;;;18.50;99.90;;;;;;5023438;28;20264;-85
2021/07/18 05:21:28;;;;;;;0.30;0.30;;;18.40;99.90;;;;;;5049268;28;20289;-85
2021/07/18 05:23:53;;;;;;;3.50;0.30;;;18.40;99.90;;;;;;5036208;28;20753;-84
2021/07/18 05:26:19;;;;;;;0.20;0.20;;;18.40;99.90;;;;;;5036050;28;20217;-85
2021/07/18 05:28:45;;;;;;;0.23;0.23;;;18.60;99.90;;;;;;5053914;28;20602;-85
2021/07/18 05:31:10;;;;;;;0.87;0.70;;;18.70;99.90;;;;;;5038807;28;20665;-84
2021/07/18 05:33:36;;;;;;;0.10;0.10;;;18.70;99.90;;;;;;5054040;28;20174;-85
2021/07/18 05:36:02;;;;;;;0.27;0.27;;;18.70;99.90;;;;;;5053666;28;20642;-84
2021/07/18 05:38:27;;;;;;;0.20;0.20;;;18.80;99.90;;;;;;5035746;28;20190;-85
2021/07/18 05:40:53;;;;;;;0.10;0.10;;;18.90;99.90;;;;;;5054042;28;20180;-85
2021/07/18 05:43:18;;;;;;;0.37;0.37;;;19.00;99.90;;;;;;5053428;28;20279;-85
2021/07/18 05:45:44;;;;;;;0.23;0.23;;;19.10;99.90;;;;;;5035540;28;20304;-86
2021/07/18 05:48:10;;;;;;;0.63;0.47;;;19.20;99.90;;;;;;5035564;28;20204;-85
2021/07/18 05:50:35;;;;;;;0.20;0.20;;;19.30;99.90;;;;;;5053782;28;20204;-85
2021/07/18 05:53:01;;;;;;;0.30;0.30;;;19.30;99.90;;;;;;5035856;28;20561;-85
2021/07/18 05:55:26;;;;;;;0.40;0.40;;;19.40;99.90;;;;;;5036136;28;20676;-85
2021/07/18 05:57:53;;;;;;;0.10;0.10;;;19.40;99.90;;;;;;5035211;28;20224;-85
2021/07/18 06:00:20;;;;;;;0.50;0.40;;;19.40;99.90;;;;;;5054051;28;20182;-84
2021/07/18 06:02:45;;;;;;;0.40;0.40;;;19.50;99.90;;;;;;5035225;28;20186;-85
2021/07/18 06:05:11;;;;;;;0.30;0.30;;;19.70;99.90;;;;;;5035252;28;20201;-85
2021/07/18 06:07:38;;;;;;;0.57;0.57;;;19.80;99.90;;;;;;5035191;28;20197;-84
2021/07/18 06:10:06;;;;;;;0.63;0.63;;;19.70;99.90;;;;;;5034711;28;20178;-85
2021/07/18 06:12:32;;;;;;;0.10;0.10;;;19.90;99.90;;;;;;5035251;28;20182;-85
2021/07/18 06:14:58;;;;;;;0.57;0.53;;;20.00;99.90;;;;;;5035076;28;20683;-84
2021/07/18 06:17:24;;;;;;;1.80;0.30;;;20.00;99.90;;;;;;5048427;28;20217;-85
2021/07/18 06:19:49;;;;;;;0.10;0.10;;;20.00;99.90;;;;;;5035148;28;20709;-85
2021/07/18 06:22:15;;;;;;;0.20;0.20;;;20.10;99.90;;;;;;5035332;28;20650;-85
2021/07/18 06:24:41;;;;;;;0.30;0.30;;;20.10;99.90;;;;;;5034781;28;20209;-85
2021/07/18 06:27:07;;;;;;;2.90;0.93;;;20.30;99.90;;;;;;5034766;28;20209;-84
2021/07/18 06:29:34;;;;;;;0.37;0.37;;;20.40;99.90;;;;;;5034755;28;20185;-85
2021/07/18 06:32:00;;;;;;;0.10;0.10;;;20.60;99.90;;;;;;5035008;28;20188;-85
2021/07/18 06:34:26;;;;;;;0.20;0.20;;;20.50;99.90;;;;;;5052542;28;20185;-84
2021/07/18 06:36:52;;;;;;;0.33;0.33;;;20.50;99.90;;;;;;5035105;28;20198;-85
2021/07/18 06:39:19;;;;;;;1.43;0.37;;;20.70;99.90;;;;;;5034703;28;20558;-85
2021/07/18 06:41:44;;;;;;;0.50;0.20;;;20.60;99.90;;;;;;5034987;28;20193;-85
2021/07/18 06:44:10;;;;;;;0.10;0.10;;;20.70;99.90;;;;;;5034503;28;20209;-85
2021/07/18 06:46:36;;;;;;;0.20;0.20;;;20.70;99.90;;;;;;5034439;28;20205;-86
2021/07/18 06:49:02;;;;;;;0.20;0.20;;;20.70;99.90;;;;;;5034278;28;20178;-85
2021/07/18 06:51:28;;;;;;;0.20;0.20;;;20.90;99.90;;;;;;5034664;28;20182;-85
2021/07/18 06:53:53;;;;;;;0.30;0.30;;;21.00;99.90;;;;;;5033738;28;20735;-86
2021/07/18 06:56:19;;;;;;;0.33;0.30;;;20.80;99.90;;;;;;5034469;28;20228;-85
2021/07/18 06:58:44;;;;;;;0.23;0.13;;;20.90;99.90;;;;;;5051977;28;20182;-85
2021/07/18 07:01:10;;;;;;;1.07;0.40;;;21.00;99.90;;;;;;5034631;28;20186;-85
2021/07/18 07:03:35;;;;;;;0.30;0.30;;;21.20;99.90;;;;;;5052093;28;20634;-85
2021/07/18 07:06:02;;;;;;;0.10;0.10;;;21.30;99.90;;;;;;5034335;28;20205;-85
2021/07/18 07:08:29;;;;;;;0.20;0.20;;;21.20;99.90;;;;;;5051643;28;20197;-85
2021/07/18 07:10:55;;;;;;;0.10;0.10;;;21.30;99.90;;;;;;5051978;28;20178;-85
2021/07/18 07:13:20;;;;;;;0.20;0.20;;;21.60;99.90;;;;;;5034385;28;20192;-85
2021/07/18 07:15:46;;;;;;;0.20;0.20;;;21.50;99.90;;;;;;5052106;28;20287;-85
2021/07/18 07:18:11;;;;;;;0.30;0.30;;;21.70;99.90;;;;;;5034066;28;20177;-86
2021/07/18 07:20:37;;;;;;;0.20;0.20;;;21.70;99.90;;;;;;5034436;28;20185;-85
2021/07/18 07:23:03;;;;;;;0.10;0.10;;;21.70;99.90;;;;;;5034269;28;20583;-85
2021/07/18 07:25:29;;;;;;;0.30;0.30;;;21.90;99.90;;;;;;5034264;28;20634;-85
2021/07/18 07:27:54;;;;;;;0.10;0.10;;;22.00;99.90;;;;;;5052470;28;20182;-85
2021/07/18 07:30:20;;;;;;;0.43;0.43;;;22.20;99.90;;;;;;5052041;28;20748;-85
2021/07/18 07:32:46;;;;;;;0.47;0.20;;;21.90;99.90;;;;;;5034206;28;20572;-84
2021/07/18 07:35:13;;;;;;;0.37;0.37;;;22.00;99.90;;;;;;5051828;28;20182;-85
2021/07/18 07:37:43;;;;;;;0.27;0.27;;;22.00;99.90;;;;;;5033895;28;20317;-85
2021/07/18 07:40:16;;;;;;;0.40;0.40;;;22.40;99.90;;;;;;5034330;28;20197;-85
2021/07/18 07:42:42;;;;;;;0.10;0.10;;;22.20;99.90;;;;;;5052240;28;20206;-85
2021/07/18 07:45:10;;;;;;;0.10;0.10;;;22.50;99.90;;;;;;5034199;28;20217;-84
2021/07/18 07:47:37;;;;;;;0.50;0.50;;;22.60;99.90;;;;;;5037217;28;20206;-85
2021/07/18 07:50:04;;;;;;;0.67;0.27;;;22.40;99.90;;;;;;5033884;28;20615;-85
2021/07/18 07:52:30;;;;;;;1.20;0.30;;;22.90;99.90;;;;;;5034120;28;20271;-85
2021/07/18 07:54:55;;;;;;;0.50;0.37;;;23.00;99.90;;;;;;5033818;28;20189;-85
2021/07/18 07:57:21;;;;;;;0.40;0.40;;;22.90;99.90;;;;;;5051545;28;20632;-85
2021/07/18 07:59:47;;;;;;;0.30;0.30;;;22.90;99.90;;;;;;5033813;28;20222;-86
2021/07/18 08:02:12;;;;;;;0.10;0.10;;;23.10;99.90;;;;;;5033932;28;20556;-85
2021/07/18 08:04:38;;;;;;;0.40;0.30;;;23.30;99.90;;;;;;5051694;28;20209;-85
2021/07/18 08:07:04;;;;;;;0.40;0.40;;;23.30;99.90;;;;;;5055220;28;20224;-85
2021/07/18 08:09:29;;;;;;;0.33;0.33;;;23.40;99.90;;;;;;5037161;28;20203;-85
2021/07/18 08:11:55;;;;;;;0.60;0.60;;;23.30;99.90;;;;;;5037673;28;20243;-85
2021/07/18 08:14:20;;;;;;;0.97;0.47;;;23.60;99.90;;;;;;5037549;28;20194;-85
2021/07/18 08:16:46;;;;;;;0.50;0.50;;;23.30;99.90;;;;;;5055080;28;20668;-85
2021/07/18 08:19:13;;;;;;;0.53;0.53;;;23.10;99.90;;;;;;5055279;28;20552;-84
2021/07/18 08:21:39;;;;;;;0.50;0.40;;;23.30;99.90;;;;;;5050964;28;20269;-85
2021/07/18 08:24:05;;;;;;;0.23;0.23;;;23.40;99.90;;;;;;5055140;28;20201;-85
2021/07/18 08:26:30;;;;;;;0.27;0.27;;;23.70;99.90;;;;;;5037493;28;20220;-85
2021/07/18 08:28:57;;;;;;;0.20;0.20;;;23.70;99.90;;;;;;5055438;28;20572;-85
2021/07/18 08:31:22;;;;;;;0.40;0.40;;;23.90;99.90;;;;;;5037303;28;20562;-85
2021/07/18 08:33:48;;;;;;;0.20;0.20;;;23.90;99.90;;;;;;5037466;28;20196;-85
2021/07/18 08:36:14;;;;;;;3.53;1.77;;;23.60;99.90;;;;;;5037149;28;20208;-85
2021/07/18 08:38:39;;;;;;;0.50;0.50;;;23.40;99.90;;;;;;5037123;28;20280;-85
2021/07/18 08:41:05;;;;;;;0.40;0.40;;;23.30;99.90;;;;;;5054904;28;20190;-85
2021/07/18 08:43:31;;;;;;;0.93;0.93;;;23.50;99.90;;;;;;5036992;28;20646;-85
2021/07/18 08:45:57;;;;;;;0.73;0.63;;;23.70;99.90;;;;;;5054934;28;20237;-85
2021/07/18 08:48:23;;;;;;;0.70;0.63;;;23.80;99.90;;;;;;5037000;28;20192;-85
2021/07/18 08:50:50;;;;;;;0.40;0.40;;;24.00;99.90;;;;;;5037191;28;20189;-84
2021/07/18 08:53:17;;;;;;;0.20;0.20;;;24.10;99.90;;;;;;5037122;28;20319;-85
2021/07/18 08:55:43;;;;;;;0.30;0.30;;;24.00;99.90;;;;;;5036863;28;20293;-85
2021/07/18 08:58:10;;;;;;;0.10;0.10;;;23.90;99.90;;;;;;5054764;28;20646;-85
2021/07/18 09:00:36;;;;;;;0.30;0.30;;;24.10;99.90;;;;;;5054771;28;20182;-85
2021/07/18 09:03:03;;;;;;;0.13;0.13;;;24.30;99.90;;;;;;5054409;28;20243;-84
2021/07/18 09:05:28;;;;;;;0.20;0.20;;;24.50;99.90;;;;;;5037743;28;20232;-85
2021/07/18 09:07:56;;;;;;;0.40;0.40;;;24.80;99.90;;;;;;5037038;28;20182;-85
2021/07/18 09:10:21;;;;;;;0.40;0.40;;;24.50;99.90;;;;;;5036013;28;20189;-85
2021/07/18 09:13:12;;;;;;;0.30;0.30;;;24.20;99.90;;;;;;5054943;28;20178;-85
2021/07/18 09:15:47;;;;;;;0.33;0.33;;;24.40;99.90;;;;;;5036585;28;20201;-85
2021/07/18 09:18:14;;;;;;;0.27;0.27;;;24.30;99.90;;;;;;5035263;28;20200;-84
2021/07/18 09:20:43;;;;;;;0.20;0.20;;;24.70;99.90;;;;;;5051127;28;20739;-85
2021/07/18 09:23:10;;;;;;;0.10;0.10;;;24.70;99.90;;;;;;5041074;28;20571;-86
2021/07/18 09:25:36;;;;;;;0.40;0.40;;;25.10;99.90;;;;;;5054298;28;20284;-85
2021/07/18 09:28:11;;;;;;;2.27;0.77;;;25.10;99.90;;;;;;5030979;28;20832;-84
2021/07/18 09:30:36;;;;;;;0.23;0.23;;;25.00;99.90;;;;;;5023787;28;20292;-86
2021/07/18 09:33:02;;;;;;;0.33;0.33;;;24.50;99.90;;;;;;5031333;28;20272;-86
2021/07/18 09:35:28;;;;;;;0.30;0.30;;;24.10;99.90;;;;;;5034230;28;20186;-88
2021/07/18 09:37:54;;;;;;;4.57;0.50;;;24.50;99.90;;;;;;5053923;28;20181;-87
2021/07/18 09:40:22;;;;;;;0.30;0.30;;;24.90;99.90;;;;;;5036210;28;20181;-87
2021/07/18 09:42:54;;;;;;;0.50;0.50;;;25.20;99.90;;;;;;5027334;28;20205;-89
2021/07/18 09:45:22;;;;;;;4.80;0.80;;;25.10;99.90;;;;;;5051602;28;20177;-89
2021/07/18 09:47:58;;;;;;;0.17;0.17;;;24.90;99.90;;;;;;5030584;28;20182;-88
2021/07/18 09:50:32;;;;;;;0.73;0.70;;;25.30;99.90;;;;;;5053555;28;20818;-88
2021/07/18 09:53:12;;;;;;;0.20;0.20;;;25.30;99.90;;;;;;5035228;28;20239;-88
2021/07/18 09:55:39;;;;;;;0.20;0.20;;;25.30;99.90;;;;;;5046262;28;20556;-89
2021/07/18 09:58:05;;;;;;;0.30;0.30;;;25.10;99.90;;;;;;5035617;28;20680;-89
2021/07/18 10:00:41;;;;;;;0.10;0.10;;;25.30;99.90;;;;;;5053962;28;20222;-89
2021/07/18 10:03:12;;;;;;;0.40;0.40;;;25.70;99.90;;;;;;5035524;28;20209;-88
2021/07/18 10:05:38;;;;;;;0.30;0.30;;;25.50;99.90;;;;;;5032590;28;20178;-89
2021/07/18 10:08:05;;;;;;;0.10;0.10;;;25.50;99.90;;;;;;5032622;28;20918;-88
2021/07/18 10:10:32;;;;;;;0.73;0.73;;;25.80;99.90;;;;;;5052747;28;20564;-88
2021/07/18 10:12:59;;;;;;;1.80;0.30;;;26.00;99.90;;;;;;5030816;28;20673;-89
2021/07/18 10:15:24;;;;;;;0.40;0.40;;;26.00;99.90;;;;;;5032876;28;20729;-88
2021/07/18 10:17:51;;;;;;;0.20;0.20;;;25.60;99.90;;;;;;5053174;28;20307;-89
2021/07/18 10:20:17;;;;;;;3.63;0.30;;;25.70;99.90;;;;;;5052883;28;20563;-87
2021/07/18 10:22:45;;;;;;;0.33;0.33;;;25.90;99.90;;;;;;5027245;28;20264;-87
2021/07/18 10:25:17;;;;;;;0.57;0.43;;;26.00;99.90;;;;;;5030762;28;20294;-88
2021/07/18 10:27:43;;;;;;;0.20;0.20;;;25.90;99.90;;;;;;5033950;28;20198;-88
2021/07/18 10:30:12;;;;;;;0.33;0.33;;;26.10;99.90;;;;;;5034139;28;20558;-87
2021/07/18 10:32:39;;;;;;;0.53;0.37;;;26.50;99.90;;;;;;5034039;28;20178;-87
2021/07/18 10:35:06;;;;;;;0.20;0.20;;;27.00;99.90;;;;;;5034100;28;20193;-87
2021/07/18 10:37:40;;;;;;;0.30;0.30;;;26.70;99.90;;;;;;5034393;28;20259;-87
2021/07/18 10:40:24;;;;;;;0.40;0.40;;;26.50;99.90;;;;;;5052462;28;20217;-87
2021/07/18 10:42:51;;;;;;;0.20;0.20;;;26.70;99.90;;;;;;5034753;28;20216;-87
2021/07/18 10:45:25;;;;;;;0.30;0.30;;;26.80;99.90;;;;;;5031543;28;20281;-87
2021/07/18 10:48:05;;;;;;;0.50;0.50;;;26.40;99.90;;;;;;5033901;28;20181;-87
2021/07/18 10:50:43;;;;;;;0.20;0.20;;;26.30;99.90;;;;;;5017699;28;20196;-87
2021/07/18 10:53:18;;;;;;;0.23;0.23;;;26.30;99.90;;;;;;5045140;28;20677;-87
2021/07/18 10:55:43;;;;;;;0.27;0.27;;;26.50;99.90;;;;;;5032309;28;20289;-87
2021/07/18 10:58:11;;;;;;;0.30;0.30;;;26.80;99.90;;;;;;5028324;28;20327;-87
2021/07/18 11:00:48;;;;;;;0.20;0.20;;;27.10;99.90;;;;;;5033342;28;20751;-88
2021/07/18 11:03:15;;;;;;;0.20;0.20;;;26.70;99.90;;;;;;5051838;28;20216;-88
2021/07/18 11:05:46;;;;;;;0.30;0.30;;;26.50;99.90;;;;;;5032952;28;20755;-88
2021/07/18 11:08:13;;;;;;;0.40;0.40;;;26.80;99.90;;;;;;5031967;28;20255;-87
2021/07/18 11:10:51;;;;;;;0.20;0.20;;;27.10;99.90;;;;;;5053375;28;20253;-88
2021/07/18 11:13:16;;;;;;;0.47;0.40;;;26.90;99.90;;;;;;5034028;28;20288;-87
2021/07/18 11:15:43;;;;;;;0.57;0.40;;;26.90;99.90;;;;;;5050989;28;20237;-87
2021/07/18 11:18:10;;;;;;;0.27;0.27;;;27.10;99.90;;;;;;5049974;28;20642;-88
2021/07/18 11:20:41;;;;;;;0.37;0.20;;;26.90;99.90;;;;;;5044491;28;20658;-87
2021/07/18 11:23:11;;;;;;;0.20;0.20;;;27.10;99.90;;;;;;5031996;28;20565;-87
2021/07/18 11:25:53;;;;;;;0.73;0.67;;;27.40;99.90;;;;;;5032336;28;20623;-87
2021/07/18 11:28:30;;;;;;;0.97;0.40;;;27.90;99.90;;;;;;5034032;28;20185;-87
2021/07/18 11:31:13;;;;;;;0.30;0.30;;;27.80;99.90;;;;;;5031738;28;20180;-87
2021/07/18 11:33:45;;;;;;;0.20;0.20;;;27.70;99.90;;;;;;5032662;28;20558;-87
2021/07/18 11:36:16;;;;;;;0.50;0.50;;;27.60;99.90;;;;;;5048669;28;20596;-87
2021/07/18 11:38:41;;;;;;;0.30;0.30;;;27.70;99.90;;;;;;5033062;28;20190;-87
2021/07/18 11:41:30;;;;;;;0.40;0.40;;;27.50;99.90;;;;;;5053752;28;20192;-87
2021/07/18 11:44:02;;;;;;;0.20;0.20;;;27.60;99.90;;;;;;5043546;28;20685;-87
2021/07/18 11:46:44;;;;;;;0.30;0.30;;;26.90;99.90;;;;;;5040216;28;20250;-87
2021/07/18 11:49:11;;;;;;;0.23;0.23;;;27.20;99.90;;;;;;5052801;28;21970;-87
2021/07/18 11:51:39;;;;;;;0.47;0.30;;;27.30;99.90;;;;;;5037673;28;20178;-87
2021/07/18 11:54:07;;;;;;;0.37;0.37;;;27.30;99.90;;;;;;5033090;28;20196;-86
2021/07/18 11:56:36;;;;;;;0.33;0.33;;;27.50;99.90;;;;;;5024484;28;20297;-89
2021/07/18 11:59:06;;;;;;;0.30;0.30;;;27.50;99.90;;;;;;5046745;28;20183;-87
2021/07/18 12:01:36;;;;;;;0.40;0.40;;;28.00;99.90;;;;;;5036394;28;20185;-89
2021/07/18 12:04:04;;;;;;;2.63;0.67;;;28.20;99.90;;;;;;5055317;28;20214;-89
2021/07/18 12:06:33;;;;;;;0.30;0.30;;;27.90;99.90;;;;;;5036800;28;20205;-88
2021/07/18 12:09:10;;;;;;;0.28;0.28;;;28.30;99.90;;;;;;5028228;28;20269;-89
2021/07/18 12:11:37;;;;;;;0.38;0.38;;;28.60;99.90;;;;;;5036860;28;20189;-89
2021/07/18 12:14:04;;;;;;;0.60;0.60;;;28.50;99.90;;;;;;5037432;28;20199;-88
2021/07/18 12:16:29;;;;;;;0.50;0.50;;;28.10;99.90;;;;;;5050346;28;20218;-89
2021/07/18 12:19:00;;;;;;;0.60;0.60;;;27.50;99.90;;;;;;5051542;28;20197;-88
2021/07/18 12:21:29;;;;;;;0.43;0.43;;;27.40;99.90;;;;;;5054444;28;20247;-89
2021/07/18 12:24:24;;;;;;;0.40;0.40;;;27.50;99.90;;;;;;5036647;28;20774;-88
2021/07/18 12:26:53;;;;;;;0.50;0.50;;;27.80;99.90;;;;;;5032225;28;20198;-89
2021/07/18 12:29:21;;;;;;;0.45;0.30;;;28.20;99.90;;;;;;5037101;28;20193;-91
2021/07/18 12:31:49;;;;;;;0.55;0.55;;;28.20;99.90;;;;;;5049488;28;20187;-88
2021/07/18 12:34:16;;;;;;;0.20;0.20;;;27.80;99.90;;;;;;5051488;28;20192;-89
2021/07/18 12:37:11;;;;;;;1.23;0.43;;;27.80;99.90;;;;;;5036803;28;20215;-89
2021/07/18 12:39:50;;;;;;;0.47;0.47;;;27.80;99.90;;;;;;5035631;28;20190;-91
2021/07/18 12:42:33;;;;;;;0.40;0.40;;;28.00;99.90;;;;;;5054710;28;20747;-89
2021/07/18 12:45:03;;;;;;;0.63;0.40;;;28.40;99.90;;;;;;5052925;28;20205;-89
2021/07/18 12:47:33;;;;;;;1.48;0.80;;;28.60;99.90;;;;;;5053650;28;20221;-88
2021/07/18 12:50:12;;;;;;;0.50;0.50;;;28.40;99.90;;;;;;5035512;28;20561;-89